sensor_id;sensor_type;location;lat;lon;timestamp;pressure;altitude;pressure_sealevel;temperature;humidity
74329;BME280;62749;51.982;5.916;2023-05-20T00:01:41;102254.81;;;13.66;60.14
74329;BME280;62749;51.982;5.916;2023-05-20T00:04:10;102255.81;;;13.62;60.21
74329;BME280;62749;51.982;5.916;2023-05-20T00:06:39;102247.72;;;13.67;59.64
74329;BME280;62749;51.982;5.916;2023-05-20T00:09:11;102253.88;;;13.67;59.94
74329;BME280;62749;51.982;5.916;2023-05-20T00:11:42;102252.16;;;13.66;60.02
74329;BME280;62749;51.982;5.916;2023-05-20T00:14:11;102246.22;;;13.58;60.27
74329;BME280;62749;51.982;5.916;2023-05-20T00:16:41;102249.78;;;13.57;60.11
74329;BME280;62749;51.982;5.916;2023-05-20T00:19:10;102248.34;;;13.46;60.49
74329;BME280;62749;51.982;5.916;2023-05-20T00:21:39;102244.28;;;13.33;61.17
74329;BME280;62749;51.982;5.916;2023-05-20T00:24:11;102243.13;;;13.43;60.47
74329;BME280;62749;51.982;5.916;2023-05-20T00:26:41;102252.81;;;13.44;60.89
74329;BME280;62749;51.982;5.916;2023-05-20T00:29:10;102242.25;;;13.43;61.02
74329;BME280;62749;51.982;5.916;2023-05-20T00:31:39;102244.31;;;13.31;61.64
74329;BME280;62749;51.982;5.916;2023-05-20T00:34:09;102245.00;;;13.40;61.30
74329;BME280;62749;51.982;5.916;2023-05-20T00:36:38;102245.53;;;13.51;61.13
74329;BME280;62749;51.982;5.916;2023-05-20T00:39:11;102250.19;;;13.44;61.57
74329;BME280;62749;51.982;5.916;2023-05-20T00:41:40;102241.09;;;13.52;61.11
74329;BME280;62749;51.982;5.916;2023-05-20T00:44:09;102249.13;;;13.50;61.06
74329;BME280;62749;51.982;5.916;2023-05-20T00:46:39;102237.44;;;13.56;61.11
74329;BME280;62749;51.982;5.916;2023-05-20T00:49:08;102248.22;;;13.49;61.20
74329;BME280;62749;51.982;5.916;2023-05-20T00:51:37;102248.91;;;13.56;61.45
74329;BME280;62749;51.982;5.916;2023-05-20T00:54:07;102246.22;;;13.58;61.59
74329;BME280;62749;51.982;5.916;2023-05-20T00:56:39;102240.09;;;13.56;61.45
74329;BME280;62749;51.982;5.916;2023-05-20T00:59:09;102236.50;;;13.57;61.77
74329;BME280;62749;51.982;5.916;2023-05-20T01:01:39;102236.75;;;13.49;61.61
74329;BME280;62749;51.982;5.916;2023-05-20T01:04:08;102228.63;;;13.54;61.72
74329;BME280;62749;51.982;5.916;2023-05-20T01:06:38;102228.69;;;13.52;61.75
74329;BME280;62749;51.982;5.916;2023-05-20T01:09:07;102228.16;;;13.39;62.29
74329;BME280;62749;51.982;5.916;2023-05-20T01:11:46;102218.97;;;13.23;62.72
74329;BME280;62749;51.982;5.916;2023-05-20T01:14:21;102228.47;;;13.30;62.70
74329;BME280;62749;51.982;5.916;2023-05-20T01:16:54;102221.63;;;13.23;63.08
74329;BME280;62749;51.982;5.916;2023-05-20T01:19:32;102224.34;;;13.19;63.16
74329;BME280;62749;51.982;5.916;2023-05-20T01:22:06;102222.56;;;13.20;63.36
74329;BME280;62749;51.982;5.916;2023-05-20T01:24:42;102218.06;;;13.22;63.09
74329;BME280;62749;51.982;5.916;2023-05-20T01:27:13;102217.09;;;13.25;63.02
74329;BME280;62749;51.982;5.916;2023-05-20T01:29:46;102225.97;;;13.24;63.48
74329;BME280;62749;51.982;5.916;2023-05-20T01:32:20;102231.50;;;13.17;63.30
74329;BME280;62749;51.982;5.916;2023-05-20T01:34:52;102226.25;;;13.14;63.72
74329;BME280;62749;51.982;5.916;2023-05-20T01:37:22;102224.50;;;13.15;63.71
74329;BME280;62749;51.982;5.916;2023-05-20T01:39:55;102223.81;;;13.08;63.82
74329;BME280;62749;51.982;5.916;2023-05-20T01:42:26;102208.03;;;13.03;63.98
74329;BME280;62749;51.982;5.916;2023-05-20T01:44:58;102216.69;;;13.10;64.26
74329;BME280;62749;51.982;5.916;2023-05-20T01:47:27;102210.44;;;13.11;64.23
74329;BME280;62749;51.982;5.916;2023-05-20T01:49:56;102204.28;;;13.11;64.12
74329;BME280;62749;51.982;5.916;2023-05-20T01:52:26;102205.59;;;12.96;64.71
74329;BME280;62749;51.982;5.916;2023-05-20T01:55:00;102205.41;;;13.02;64.48
74329;BME280;62749;51.982;5.916;2023-05-20T01:57:29;102205.50;;;12.99;64.78
74329;BME280;62749;51.982;5.916;2023-05-20T01:59:58;102196.75;;;12.97;64.83
74329;BME280;62749;51.982;5.916;2023-05-20T02:02:27;102196.47;;;13.04;64.74
74329;BME280;62749;51.982;5.916;2023-05-20T02:04:57;102198.69;;;12.90;64.81
74329;BME280;62749;51.982;5.916;2023-05-20T02:07:26;102202.41;;;12.84;65.50
74329;BME280;62749;51.982;5.916;2023-05-20T02:09:55;102205.50;;;12.99;65.07
74329;BME280;62749;51.982;5.916;2023-05-20T02:12:27;102203.66;;;13.02;64.73
74329;BME280;62749;51.982;5.916;2023-05-20T02:14:57;102209.84;;;13.01;65.02
74329;BME280;62749;51.982;5.916;2023-05-20T02:17:26;102198.22;;;13.05;65.06
74329;BME280;62749;51.982;5.916;2023-05-20T02:19:56;102204.34;;;13.08;64.83
74329;BME280;62749;51.982;5.916;2023-05-20T02:22:25;102204.59;;;13.00;65.08
74329;BME280;62749;51.982;5.916;2023-05-20T02:24:54;102203.75;;;12.98;65.34
74329;BME280;62749;51.982;5.916;2023-05-20T02:27:26;102202.59;;;13.08;65.03
74329;BME280;62749;51.982;5.916;2023-05-20T02:29:56;102199.03;;;13.08;65.18
74329;BME280;62749;51.982;5.916;2023-05-20T02:32:26;102199.09;;;13.06;65.11
74329;BME280;62749;51.982;5.916;2023-05-20T02:34:55;102194.72;;;13.05;65.08
74329;BME280;62749;51.982;5.916;2023-05-20T02:37:25;102192.97;;;13.04;65.23
74329;BME280;62749;51.982;5.916;2023-05-20T02:39:54;102194.72;;;13.05;65.30
74329;BME280;62749;51.982;5.916;2023-05-20T02:42:26;102184.97;;;13.05;65.22
74329;BME280;62749;51.982;5.916;2023-05-20T02:44:56;102188.25;;;13.14;64.90
74329;BME280;62749;51.982;5.916;2023-05-20T02:47:26;102184.88;;;13.09;65.08
74329;BME280;62749;51.982;5.916;2023-05-20T02:49:55;102182.66;;;12.95;65.59
74329;BME280;62749;51.982;5.916;2023-05-20T02:52:25;102176.22;;;13.02;65.67
74329;BME280;62749;51.982;5.916;2023-05-20T02:54:54;102173.63;;;13.00;65.72
74329;BME280;62749;51.982;5.916;2023-05-20T02:57:23;102171.75;;;13.04;65.60
74329;BME280;62749;51.982;5.916;2023-05-20T02:59:56;102173.63;;;13.00;65.63
74329;BME280;62749;51.982;5.916;2023-05-20T03:02:25;102169.41;;;12.93;65.82
74329;BME280;62749;51.982;5.916;2023-05-20T03:04:55;102181.97;;;12.88;66.11
74329;BME280;62749;51.982;5.916;2023-05-20T03:07:24;102181.97;;;12.86;66.11
74329;BME280;62749;51.982;5.916;2023-05-20T03:09:54;102184.75;;;12.83;66.24
74329;BME280;62749;51.982;5.916;2023-05-20T03:12:24;102184.91;;;12.77;66.28
74329;BME280;62749;51.982;5.916;2023-05-20T03:14:56;102188.31;;;12.82;66.72
74329;BME280;62749;51.982;5.916;2023-05-20T03:17:26;102182.91;;;12.85;66.38
74329;BME280;62749;51.982;5.916;2023-05-20T03:19:55;102181.34;;;12.78;66.63
74329;BME280;62749;51.982;5.916;2023-05-20T03:22:25;102183.44;;;12.67;67.02
74329;BME280;62749;51.982;5.916;2023-05-20T03:24:54;102179.19;;;12.61;67.26
74329;BME280;62749;51.982;5.916;2023-05-20T03:27:25;102188.13;;;12.57;67.57
74329;BME280;62749;51.982;5.916;2023-05-20T03:29:57;102182.28;;;12.46;68.15
74329;BME280;62749;51.982;5.916;2023-05-20T03:32:27;102186.59;;;12.50;67.98
74329;BME280;62749;51.982;5.916;2023-05-20T03:34:56;102187.41;;;12.52;68.08
74329;BME280;62749;51.982;5.916;2023-05-20T03:37:26;102190.84;;;12.55;68.04
74329;BME280;62749;51.982;5.916;2023-05-20T03:39:55;102184.63;;;12.56;67.97
74329;BME280;62749;51.982;5.916;2023-05-20T03:42:24;102185.84;;;12.45;68.19
74329;BME280;62749;51.982;5.916;2023-05-20T03:44:56;102189.25;;;12.48;68.02
74329;BME280;62749;51.982;5.916;2023-05-20T03:47:26;102187.63;;;12.44;68.57
74329;BME280;62749;51.982;5.916;2023-05-20T03:49:55;102192.81;;;12.47;68.29
74329;BME280;62749;51.982;5.916;2023-05-20T03:52:25;102196.34;;;12.48;68.50
74329;BME280;62749;51.982;5.916;2023-05-20T03:54:54;102190.06;;;12.52;68.15
74329;BME280;62749;51.982;5.916;2023-05-20T03:57:24;102195.56;;;12.44;68.31
74329;BME280;62749;51.982;5.916;2023-05-20T03:59:57;102197.34;;;12.43;68.58
74329;BME280;62749;51.982;5.916;2023-05-20T04:02:28;102188.53;;;12.43;68.71
74329;BME280;62749;51.982;5.916;2023-05-20T04:04:57;102192.75;;;12.50;68.54
74329;BME280;62749;51.982;5.916;2023-05-20T04:07:27;102186.72;;;12.45;68.51
74329;BME280;62749;51.982;5.916;2023-05-20T04:09:57;102190.50;;;12.35;68.56
74329;BME280;62749;51.982;5.916;2023-05-20T04:12:27;102186.22;;;12.31;68.71
74329;BME280;62749;51.982;5.916;2023-05-20T04:15:00;102185.34;;;12.30;69.14
74329;BME280;62749;51.982;5.916;2023-05-20T04:17:30;102188.69;;;12.37;68.87
74329;BME280;62749;51.982;5.916;2023-05-20T04:20:03;102185.06;;;12.39;68.84
74329;BME280;62749;51.982;5.916;2023-05-20T04:22:33;102186.34;;;12.26;69.24
74329;BME280;62749;51.982;5.916;2023-05-20T04:25:05;102193.34;;;12.28;69.13
74329;BME280;62749;51.982;5.916;2023-05-20T04:27:35;102184.75;;;12.19;69.46
74329;BME280;62749;51.982;5.916;2023-05-20T04:30:08;102189.97;;;12.22;69.08
74329;BME280;62749;51.982;5.916;2023-05-20T04:32:38;102190.63;;;12.32;69.31
74329;BME280;62749;51.982;5.916;2023-05-20T04:35:08;102189.59;;;12.36;68.83
74329;BME280;62749;51.982;5.916;2023-05-20T04:37:39;102187.16;;;12.28;69.11
74329;BME280;62749;51.982;5.916;2023-05-20T04:40:11;102196.50;;;12.41;68.63
74329;BME280;62749;51.982;5.916;2023-05-20T04:42:40;102193.91;;;12.40;68.82
74329;BME280;62749;51.982;5.916;2023-05-20T04:45:13;102193.13;;;12.36;69.02
74329;BME280;62749;51.982;5.916;2023-05-20T04:47:42;102191.25;;;12.40;68.45
74329;BME280;62749;51.982;5.916;2023-05-20T04:50:12;102208.13;;;12.37;68.69
74329;BME280;62749;51.982;5.916;2023-05-20T04:52:41;102196.81;;;12.31;68.89
74329;BME280;62749;51.982;5.916;2023-05-20T04:55:12;102206.06;;;12.47;68.50
74329;BME280;62749;51.982;5.916;2023-05-20T04:57:41;102204.47;;;12.41;68.83
74329;BME280;62749;51.982;5.916;2023-05-20T05:00:14;102206.81;;;12.52;68.41
74329;BME280;62749;51.982;5.916;2023-05-20T05:02:43;102199.69;;;12.54;68.45
74329;BME280;62749;51.982;5.916;2023-05-20T05:05:13;102198.59;;;12.63;68.20
74329;BME280;62749;51.982;5.916;2023-05-20T05:07:42;102185.53;;;12.55;68.08
74329;BME280;62749;51.982;5.916;2023-05-20T05:10:12;102194.97;;;12.66;67.99
74329;BME280;62749;51.982;5.916;2023-05-20T05:12:41;102190.91;;;12.52;68.36
74329;BME280;62749;51.982;5.916;2023-05-20T05:15:13;102189.94;;;12.56;68.34
74329;BME280;62749;51.982;5.916;2023-05-20T05:17:43;102191.75;;;12.54;68.88
74329;BME280;62749;51.982;5.916;2023-05-20T05:20:12;102194.28;;;12.59;68.37
74329;BME280;62749;51.982;5.916;2023-05-20T05:22:42;102184.72;;;12.53;68.68
74329;BME280;62749;51.982;5.916;2023-05-20T05:25:12;102183.59;;;12.61;68.59
74329;BME280;62749;51.982;5.916;2023-05-20T05:27:42;102186.66;;;12.78;68.00
74329;BME280;62749;51.982;5.916;2023-05-20T05:30:17;102181.44;;;12.75;68.18
74329;BME280;62749;51.982;5.916;2023-05-20T05:32:47;102179.91;;;12.66;68.54
74329;BME280;62749;51.982;5.916;2023-05-20T05:35:16;102184.06;;;12.77;68.41
74329;BME280;62749;51.982;5.916;2023-05-20T05:37:46;102187.13;;;12.93;68.06
74329;BME280;62749;51.982;5.916;2023-05-20T05:40:15;102187.03;;;12.96;67.51
74329;BME280;62749;51.982;5.916;2023-05-20T05:42:45;102185.88;;;13.04;67.41
74329;BME280;62749;51.982;5.916;2023-05-20T05:45:17;102188.25;;;13.14;67.21
74329;BME280;62749;51.982;5.916;2023-05-20T05:47:46;102192.44;;;13.23;66.74
74329;BME280;62749;51.982;5.916;2023-05-20T05:50:16;102183.41;;;13.28;66.64
74329;BME280;62749;51.982;5.916;2023-05-20T05:52:45;102185.03;;;13.32;66.18
74329;BME280;62749;51.982;5.916;2023-05-20T05:55:15;102185.59;;;13.44;65.98
74329;BME280;62749;51.982;5.916;2023-05-20T05:57:44;102179.41;;;13.43;65.97
74329;BME280;62749;51.982;5.916;2023-05-20T06:00:17;102183.75;;;13.46;65.91
74329;BME280;62749;51.982;5.916;2023-05-20T06:02:46;102189.56;;;13.59;65.51
74329;BME280;62749;51.982;5.916;2023-05-20T06:05:16;102190.25;;;13.64;65.60
74329;BME280;62749;51.982;5.916;2023-05-20T06:07:45;102180.94;;;13.79;64.94
74329;BME280;62749;51.982;5.916;2023-05-20T06:10:15;102171.81;;;13.86;64.26
74329;BME280;62749;51.982;5.916;2023-05-20T06:12:44;102171.50;;;13.95;64.17
74329;BME280;62749;51.982;5.916;2023-05-20T06:15:13;102170.63;;;13.95;63.79
74329;BME280;62749;51.982;5.916;2023-05-20T06:17:45;102177.28;;;14.08;63.96
74329;BME280;62749;51.982;5.916;2023-05-20T06:20:15;102177.09;;;14.13;63.52
74329;BME280;62749;51.982;5.916;2023-05-20T06:22:44;102174.38;;;14.15;62.90
74329;BME280;62749;51.982;5.916;2023-05-20T06:25:14;102166.75;;;14.31;63.48
74329;BME280;62749;51.982;5.916;2023-05-20T06:27:43;102163.69;;;14.41;63.07
74329;BME280;62749;51.982;5.916;2023-05-20T06:30:13;102154.78;;;14.42;62.49
74329;BME280;62749;51.982;5.916;2023-05-20T06:32:45;102160.75;;;14.49;62.40
74329;BME280;62749;51.982;5.916;2023-05-20T06:35:15;102153.19;;;14.62;61.89
74329;BME280;62749;51.982;5.916;2023-05-20T06:37:44;102158.94;;;14.75;62.09
74329;BME280;62749;51.982;5.916;2023-05-20T06:40:13;102145.63;;;14.75;61.58
74329;BME280;62749;51.982;5.916;2023-05-20T06:42:43;102153.09;;;14.89;61.28
74329;BME280;62749;51.982;5.916;2023-05-20T06:45:12;102152.75;;;14.98;60.73
74329;BME280;62749;51.982;5.916;2023-05-20T06:47:41;102152.16;;;15.14;60.07
74329;BME280;62749;51.982;5.916;2023-05-20T06:50:14;102141.53;;;15.12;59.67
74329;BME280;62749;51.982;5.916;2023-05-20T06:52:43;102142.59;;;15.30;59.82
74329;BME280;62749;51.982;5.916;2023-05-20T06:55:13;102146.13;;;15.31;58.87
74329;BME280;62749;51.982;5.916;2023-05-20T06:57:42;102147.25;;;15.47;58.59
74329;BME280;62749;51.982;5.916;2023-05-20T07:00:12;102141.72;;;15.52;58.12
74329;BME280;62749;51.982;5.916;2023-05-20T07:02:42;102134.25;;;15.62;57.52
74329;BME280;62749;51.982;5.916;2023-05-20T07:05:14;102140.09;;;15.70;57.02
74329;BME280;62749;51.982;5.916;2023-05-20T07:07:43;102141.06;;;15.90;56.31
74329;BME280;62749;51.982;5.916;2023-05-20T07:10:12;102129.94;;;16.01;56.92
74329;BME280;62749;51.982;5.916;2023-05-20T07:12:42;102137.69;;;16.07;56.17
74329;BME280;62749;51.982;5.916;2023-05-20T07:15:11;102130.94;;;16.19;56.62
74329;BME280;62749;51.982;5.916;2023-05-20T07:17:40;102134.84;;;16.31;55.60
74329;BME280;62749;51.982;5.916;2023-05-20T07:20:10;102136.50;;;16.33;54.89
74329;BME280;62749;51.982;5.916;2023-05-20T07:22:42;102137.38;;;16.34;54.91
74329;BME280;62749;51.982;5.916;2023-05-20T07:25:14;102130.03;;;16.39;55.16
74329;BME280;62749;51.982;5.916;2023-05-20T07:27:43;102135.88;;;16.47;54.34
74329;BME280;62749;51.982;5.916;2023-05-20T07:30:12;102133.88;;;16.52;54.46
74329;BME280;62749;51.982;5.916;2023-05-20T07:32:42;102119.16;;;16.63;54.19
74329;BME280;62749;51.982;5.916;2023-05-20T07:35:11;102123.06;;;16.55;54.07
74329;BME280;62749;51.982;5.916;2023-05-20T07:37:43;102118.16;;;16.65;53.49
74329;BME280;62749;51.982;5.916;2023-05-20T07:40:13;102113.97;;;16.60;52.98
74329;BME280;62749;51.982;5.916;2023-05-20T07:42:42;102119.69;;;16.71;54.12
74329;BME280;62749;51.982;5.916;2023-05-20T07:45:12;102111.53;;;16.74;53.02
74329;BME280;62749;51.982;5.916;2023-05-20T07:47:41;102109.06;;;16.88;53.42
74329;BME280;62749;51.982;5.916;2023-05-20T07:50:10;102108.59;;;16.99;52.40
74329;BME280;62749;51.982;5.916;2023-05-20T07:52:42;102114.78;;;17.00;51.91
74329;BME280;62749;51.982;5.916;2023-05-20T07:55:12;102105.25;;;16.94;52.31
74329;BME280;62749;51.982;5.916;2023-05-20T07:57:41;102113.31;;;17.12;52.06
74329;BME280;62749;51.982;5.916;2023-05-20T08:00:11;102105.88;;;17.18;51.78
74329;BME280;62749;51.982;5.916;2023-05-20T08:02:41;102100.41;;;17.22;51.56
74329;BME280;62749;51.982;5.916;2023-05-20T08:05:10;102106.44;;;17.25;50.90
74329;BME280;62749;51.982;5.916;2023-05-20T08:07:42;102100.97;;;17.28;51.00
74329;BME280;62749;51.982;5.916;2023-05-20T08:10:12;102105.94;;;17.36;50.56
74329;BME280;62749;51.982;5.916;2023-05-20T08:12:41;102098.84;;;17.35;50.37
74329;BME280;62749;51.982;5.916;2023-05-20T08:15:11;102106.06;;;17.51;50.31
74329;BME280;62749;51.982;5.916;2023-05-20T08:17:40;102105.28;;;17.66;50.27
74329;BME280;62749;51.982;5.916;2023-05-20T08:20:11;102105.78;;;17.57;49.90
74329;BME280;62749;51.982;5.916;2023-05-20T08:22:43;102103.50;;;17.67;49.98
74329;BME280;62749;51.982;5.916;2023-05-20T08:25:13;102098.06;;;17.86;49.51
74329;BME280;62749;51.982;5.916;2023-05-20T08:27:43;102102.47;;;17.87;48.41
74329;BME280;62749;51.982;5.916;2023-05-20T08:30:12;102096.66;;;17.61;49.11
74329;BME280;62749;51.982;5.916;2023-05-20T08:32:42;102100.19;;;17.79;47.81
74329;BME280;62749;51.982;5.916;2023-05-20T08:35:11;102094.59;;;17.84;48.79
74329;BME280;62749;51.982;5.916;2023-05-20T08:37:43;102094.44;;;17.87;47.58
74329;BME280;62749;51.982;5.916;2023-05-20T08:40:13;102102.94;;;17.77;48.16
74329;BME280;62749;51.982;5.916;2023-05-20T08:42:43;102086.09;;;17.93;47.67
74329;BME280;62749;51.982;5.916;2023-05-20T08:45:16;102087.31;;;18.05;47.32
74329;BME280;62749;51.982;5.916;2023-05-20T08:47:46;102084.81;;;18.18;47.01
74329;BME280;62749;51.982;5.916;2023-05-20T08:50:16;102080.81;;;18.09;47.15
74329;BME280;62749;51.982;5.916;2023-05-20T08:52:48;102085.19;;;18.28;46.97
74329;BME280;62749;51.982;5.916;2023-05-20T08:55:23;102084.00;;;18.33;46.95
74329;BME280;62749;51.982;5.916;2023-05-20T08:57:55;102083.78;;;18.20;46.74
74329;BME280;62749;51.982;5.916;2023-05-20T09:00:24;102073.28;;;18.33;45.43
74329;BME280;62749;51.982;5.916;2023-05-20T09:02:55;102065.91;;;18.38;45.13
74329;BME280;62749;51.982;5.916;2023-05-20T09:05:25;102077.00;;;18.31;45.18
74329;BME280;62749;51.982;5.916;2023-05-20T09:08:06;102072.22;;;18.20;44.61
74329;BME280;62749;51.982;5.916;2023-05-20T09:10:37;102069.94;;;18.30;44.29
74329;BME280;62749;51.982;5.916;2023-05-20T09:13:08;102068.25;;;18.27;44.47
74329;BME280;62749;51.982;5.916;2023-05-20T09:15:38;102059.59;;;18.55;44.54
74329;BME280;62749;51.982;5.916;2023-05-20T09:18:07;102062.44;;;18.68;43.85
74329;BME280;62749;51.982;5.916;2023-05-20T09:20:37;102054.00;;;18.60;43.96
74329;BME280;62749;51.982;5.916;2023-05-20T09:23:09;102056.91;;;18.71;44.42
74329;BME280;62749;51.982;5.916;2023-05-20T09:25:39;102069.50;;;18.85;43.48
74329;BME280;62749;51.982;5.916;2023-05-20T09:28:09;102060.97;;;18.79;43.73
74329;BME280;62749;51.982;5.916;2023-05-20T09:30:38;102051.91;;;18.97;43.75
74329;BME280;62749;51.982;5.916;2023-05-20T09:33:07;102063.31;;;19.01;43.08
74329;BME280;62749;51.982;5.916;2023-05-20T09:35:37;102056.22;;;19.00;43.42
74329;BME280;62749;51.982;5.916;2023-05-20T09:38:10;102055.69;;;18.93;43.46
74329;BME280;62749;51.982;5.916;2023-05-20T09:40:43;102059.78;;;18.84;43.52
74329;BME280;62749;51.982;5.916;2023-05-20T09:43:14;102050.88;;;18.84;43.53
74329;BME280;62749;51.982;5.916;2023-05-20T09:45:45;102053.94;;;18.92;43.85
74329;BME280;62749;51.982;5.916;2023-05-20T09:48:15;102045.63;;;18.82;44.29
74329;BME280;62749;51.982;5.916;2023-05-20T09:50:45;102046.63;;;19.12;44.67
74329;BME280;62749;51.982;5.916;2023-05-20T09:53:18;102039.81;;;19.37;43.71
74329;BME280;62749;51.982;5.916;2023-05-20T09:55:50;102053.66;;;19.59;43.57
74329;BME280;62749;51.982;5.916;2023-05-20T09:58:21;102043.31;;;19.53;42.79
74329;BME280;62749;51.982;5.916;2023-05-20T10:00:51;102036.03;;;19.55;43.82
74329;BME280;62749;51.982;5.916;2023-05-20T10:03:21;102035.38;;;19.81;42.29
74329;BME280;62749;51.982;5.916;2023-05-20T10:06:12;102050.56;;;19.96;42.24
74329;BME280;62749;51.982;5.916;2023-05-20T10:09:00;102034.72;;;19.77;42.06
74329;BME280;62749;51.982;5.916;2023-05-20T10:11:55;102041.16;;;19.89;42.88
74329;BME280;62749;51.982;5.916;2023-05-20T10:14:39;102030.91;;;20.10;42.38
74329;BME280;62749;51.982;5.916;2023-05-20T10:17:17;102042.72;;;20.22;42.22
74329;BME280;62749;51.982;5.916;2023-05-20T10:19:56;102040.13;;;19.91;41.70
74329;BME280;62749;51.982;5.916;2023-05-20T10:22:27;102043.66;;;19.92;41.71
74329;BME280;62749;51.982;5.916;2023-05-20T10:25:04;102026.72;;;20.06;41.51
74329;BME280;62749;51.982;5.916;2023-05-20T10:27:45;102024.56;;;20.40;41.76
74329;BME280;62749;51.982;5.916;2023-05-20T10:30:16;102029.16;;;20.38;40.77
74329;BME280;62749;51.982;5.916;2023-05-20T10:32:54;102014.50;;;20.29;41.30
74329;BME280;62749;51.982;5.916;2023-05-20T10:35:26;102003.13;;;20.26;40.61
74329;BME280;62749;51.982;5.916;2023-05-20T10:38:12;102011.63;;;20.47;41.15
74329;BME280;62749;51.982;5.916;2023-05-20T10:40:43;102007.00;;;20.49;40.44
74329;BME280;62749;51.982;5.916;2023-05-20T10:43:15;102008.44;;;20.54;40.05
74329;BME280;62749;51.982;5.916;2023-05-20T10:45:49;101993.59;;;20.49;40.52
74329;BME280;62749;51.982;5.916;2023-05-20T10:48:20;101994.19;;;20.81;40.69
74329;BME280;62749;51.982;5.916;2023-05-20T10:50:53;101994.84;;;20.98;39.22
74329;BME280;62749;51.982;5.916;2023-05-20T10:53:26;101998.75;;;21.86;37.10
74329;BME280;62749;51.982;5.916;2023-05-20T10:55:58;102002.50;;;22.71;36.49
74329;BME280;62749;51.982;5.916;2023-05-20T10:58:36;101999.75;;;22.22;36.56
74329;BME280;62749;51.982;5.916;2023-05-20T11:01:06;102003.31;;;23.55;35.33
74329;BME280;62749;51.982;5.916;2023-05-20T11:03:36;101997.22;;;24.10;33.65
74329;BME280;62749;51.982;5.916;2023-05-20T11:06:13;101990.78;;;24.34;34.14
74329;BME280;62749;51.982;5.916;2023-05-20T11:08:43;101995.59;;;25.28;32.12
74329;BME280;62749;51.982;5.916;2023-05-20T11:11:16;101993.69;;;25.40;31.43
74329;BME280;62749;51.982;5.916;2023-05-20T11:13:49;101993.22;;;25.77;30.95
74329;BME280;62749;51.982;5.916;2023-05-20T11:16:19;102006.63;;;25.15;31.21
74329;BME280;62749;51.982;5.916;2023-05-20T11:18:49;101992.09;;;25.37;31.92
74329;BME280;62749;51.982;5.916;2023-05-20T11:21:19;101988.97;;;26.15;30.73
74329;BME280;62749;51.982;5.916;2023-05-20T11:23:50;101996.34;;;25.51;30.88
74329;BME280;62749;51.982;5.916;2023-05-20T11:26:23;101998.56;;;24.16;32.68
74329;BME280;62749;51.982;5.916;2023-05-20T11:28:52;101981.44;;;23.24;34.52
74329;BME280;62749;51.982;5.916;2023-05-20T11:31:21;101972.16;;;22.31;36.35
74329;BME280;62749;51.982;5.916;2023-05-20T11:33:51;101977.78;;;21.65;37.63
74329;BME280;62749;51.982;5.916;2023-05-20T11:36:21;101969.47;;;21.42;37.92
74329;BME280;62749;51.982;5.916;2023-05-20T11:38:51;101964.94;;;21.95;37.81
74329;BME280;62749;51.982;5.916;2023-05-20T11:41:25;101967.97;;;21.64;38.11
74329;BME280;62749;51.982;5.916;2023-05-20T11:43:56;101966.91;;;21.41;39.01
74329;BME280;62749;51.982;5.916;2023-05-20T11:46:26;101961.63;;;21.39;39.05
74329;BME280;62749;51.982;5.916;2023-05-20T11:48:56;101968.94;;;21.76;37.49
74329;BME280;62749;51.982;5.916;2023-05-20T11:51:26;101968.22;;;21.61;37.52
74329;BME280;62749;51.982;5.916;2023-05-20T11:53:58;101979.91;;;21.47;37.93
74329;BME280;62749;51.982;5.916;2023-05-20T11:56:32;101974.38;;;20.97;38.32
74329;BME280;62749;51.982;5.916;2023-05-20T11:59:03;101969.44;;;21.04;39.21
74329;BME280;62749;51.982;5.916;2023-05-20T12:01:35;101956.59;;;20.81;39.17
74329;BME280;62749;51.982;5.916;2023-05-20T12:04:06;101960.31;;;20.51;39.51
74329;BME280;62749;51.982;5.916;2023-05-20T12:06:35;101956.47;;;20.83;40.44
74329;BME280;62749;51.982;5.916;2023-05-20T12:09:06;101946.44;;;21.12;38.82
74329;BME280;62749;51.982;5.916;2023-05-20T12:11:38;101950.75;;;21.28;39.19
74329;BME280;62749;51.982;5.916;2023-05-20T12:14:10;101938.16;;;21.15;40.39
74329;BME280;62749;51.982;5.916;2023-05-20T12:16:39;101936.66;;;21.37;38.92
74329;BME280;62749;51.982;5.916;2023-05-20T12:19:08;101946.81;;;21.59;37.95
74329;BME280;62749;51.982;5.916;2023-05-20T12:21:38;101945.16;;;21.31;37.78
74329;BME280;62749;51.982;5.916;2023-05-20T12:24:07;101944.38;;;21.03;38.42
74329;BME280;62749;51.982;5.916;2023-05-20T12:26:39;101935.84;;;20.56;39.92
74329;BME280;62749;51.982;5.916;2023-05-20T12:29:08;101934.28;;;20.66;40.52
74329;BME280;62749;51.982;5.916;2023-05-20T12:31:38;101936.16;;;20.79;40.27
74329;BME280;62749;51.982;5.916;2023-05-20T12:34:07;101938.34;;;20.87;40.14
74329;BME280;62749;51.982;5.916;2023-05-20T12:36:37;101937.38;;;20.88;40.07
74329;BME280;62749;51.982;5.916;2023-05-20T12:39:06;101935.97;;;20.82;40.17
74329;BME280;62749;51.982;5.916;2023-05-20T12:41:39;101931.03;;;20.76;39.57
74329;BME280;62749;51.982;5.916;2023-05-20T12:44:08;101923.84;;;20.62;40.65
74329;BME280;62749;51.982;5.916;2023-05-20T12:46:38;101922.53;;;20.54;40.91
74329;BME280;62749;51.982;5.916;2023-05-20T12:49:07;101920.28;;;20.76;41.33
74329;BME280;62749;51.982;5.916;2023-05-20T12:51:37;101915.28;;;21.10;40.08
74329;BME280;62749;51.982;5.916;2023-05-20T12:54:06;101898.31;;;21.22;40.13
74329;BME280;62749;51.982;5.916;2023-05-20T12:56:35;101897.97;;;21.53;39.23
74329;BME280;62749;51.982;5.916;2023-05-20T12:59:08;101902.91;;;21.59;39.58
74329;BME280;62749;51.982;5.916;2023-05-20T13:01:37;101918.56;;;22.04;38.66
74329;BME280;62749;51.982;5.916;2023-05-20T13:04:07;101907.66;;;22.05;38.15
74329;BME280;62749;51.982;5.916;2023-05-20T13:06:36;101909.84;;;22.00;38.47
74329;BME280;62749;51.982;5.916;2023-05-20T13:09:06;101916.78;;;22.16;38.75